createdAt,value
2016-06-16T00:00:44.068Z,997.88
2016-06-16T00:01:44.088Z,997.86
2016-06-16T00:02:44.122Z,997.91
2016-06-16T00:03:44.141Z,997.9
2016-06-16T00:04:44.158Z,997.91
2016-06-16T00:05:44.193Z,997.89
2016-06-16T00:06:44.212Z,997.89
2016-06-16T00:07:44.231Z,997.91
2016-06-16T00:08:44.265Z,997.89
2016-06-16T00:09:44.284Z,997.88
2016-06-16T00:10:44.881Z,997.92
2016-06-16T00:11:44.321Z,997.94
2016-06-16T00:13:44.375Z,997.88
2016-06-16T00:14:44.393Z,997.88
2016-06-16T00:15:44.427Z,997.83
2016-06-16T00:16:44.446Z,997.87
2016-06-16T00:17:44.465Z,997.84
2016-06-16T00:18:44.498Z,997.88
2016-06-16T00:19:44.518Z,997.86
2016-06-16T00:20:44.537Z,997.82
2016-06-16T00:21:44.555Z,997.87
2016-06-16T00:22:44.589Z,997.88
2016-06-16T00:23:44.608Z,997.88
2016-06-16T00:24:44.627Z,997.9
2016-06-16T00:25:44.661Z,997.88
2016-06-16T00:26:44.680Z,997.93
2016-06-16T00:28:44.732Z,997.96
2016-06-16T00:29:44.751Z,997.92
2016-06-16T00:30:44.771Z,997.91
2016-06-16T00:31:44.805Z,997.91
2016-06-16T00:32:44.824Z,997.91
2016-06-16T00:33:44.841Z,997.89
2016-06-16T00:34:44.861Z,997.91
2016-06-16T00:35:44.895Z,997.93
2016-06-16T00:36:44.914Z,997.91
2016-06-16T00:37:44.932Z,997.97
2016-06-16T00:38:44.967Z,997.97
2016-06-16T00:39:44.985Z,997.94
2016-06-16T00:40:45.004Z,997.93
2016-06-16T00:41:45.039Z,997.95
2016-06-16T00:42:45.057Z,997.96
2016-06-16T00:43:45.075Z,997.98
2016-06-16T00:44:45.095Z,997.99
2016-06-16T00:45:45.129Z,997.96
2016-06-16T00:46:45.147Z,997.95
2016-06-16T00:47:45.166Z,997.95
2016-06-16T00:48:45.201Z,997.92
2016-06-16T00:49:45.219Z,997.9
2016-06-16T00:50:45.238Z,997.94
2016-06-16T00:51:45.272Z,997.92
2016-06-16T00:52:45.291Z,997.88
2016-06-16T00:53:45.309Z,997.92
2016-06-16T00:54:45.344Z,997.9
2016-06-16T00:55:45.738Z,997.88
2016-06-16T00:56:45.381Z,997.86
2016-06-16T00:57:45.401Z,997.84
2016-06-16T00:58:45.435Z,997.87
2016-06-16T01:00:45.471Z,997.9
2016-06-16T01:01:45.506Z,997.86
2016-06-16T01:02:45.525Z,997.88
2016-06-16T01:03:45.544Z,997.89
2016-06-16T01:04:45.578Z,997.9
2016-06-16T01:05:45.596Z,997.88
2016-06-16T01:06:45.615Z,997.91
2016-06-16T01:07:45.634Z,997.89
2016-06-16T01:08:45.669Z,997.88
2016-06-16T01:09:45.733Z,997.89
2016-06-16T01:10:45.706Z,997.88
2016-06-16T01:11:45.740Z,997.85
2016-06-16T01:12:45.759Z,997.85
2016-06-16T01:13:45.777Z,997.89
2016-06-16T01:14:45.812Z,997.88
2016-06-16T01:16:45.849Z,997.91
2016-06-16T01:17:45.868Z,997.9
2016-06-16T01:18:45.902Z,997.87
2016-06-16T01:19:45.921Z,997.88
2016-06-16T01:20:45.940Z,997.81
2016-06-16T01:21:45.974Z,997.84
2016-06-16T01:22:45.992Z,997.85
2016-06-16T01:23:46.026Z,997.85
2016-06-16T01:24:46.029Z,997.85
2016-06-16T01:25:46.065Z,997.87
2016-06-16T01:26:46.083Z,997.87
2016-06-16T01:27:46.102Z,997.88
2016-06-16T01:28:46.135Z,997.86
2016-06-16T01:29:46.155Z,997.83
2016-06-16T01:30:46.173Z,997.82
2016-06-16T01:32:46.226Z,997.82
2016-06-16T01:33:46.245Z,997.8
2016-06-16T01:34:46.279Z,997.78
2016-06-16T01:35:46.298Z,997.78
2016-06-16T01:36:46.316Z,997.81
2016-06-16T01:37:46.335Z,997.81
2016-06-16T01:38:46.370Z,997.83
2016-06-16T01:39:46.388Z,997.83
2016-06-16T01:40:46.407Z,997.8
2016-06-16T01:41:46.442Z,997.78
2016-06-16T01:42:46.460Z,997.74
2016-06-16T01:43:46.479Z,997.71
2016-06-16T01:44:46.498Z,997.73
2016-06-16T01:45:46.532Z,997.76
2016-06-16T01:46:46.551Z,997.76
2016-06-16T01:48:46.588Z,997.77
2016-06-16T01:49:46.623Z,997.74
2016-06-16T01:50:46.641Z,997.76
2016-06-16T01:51:46.675Z,997.72
2016-06-16T01:52:46.695Z,997.76
2016-06-16T01:53:46.713Z,997.71
2016-06-16T01:54:46.731Z,997.7
2016-06-16T01:55:46.937Z,997.78
2016-06-16T01:56:46.785Z,997.77
2016-06-16T01:57:46.803Z,997.77
2016-06-16T01:58:46.822Z,997.8
2016-06-16T01:59:46.856Z,997.8
2016-06-16T02:00:46.875Z,997.83
2016-06-16T02:01:46.893Z,997.78
2016-06-16T02:03:46.946Z,997.76
2016-06-16T02:04:46.966Z,997.7
2016-06-16T02:05:46.999Z,997.72
2016-06-16T02:06:47.019Z,997.69
2016-06-16T02:07:47.036Z,997.68
2016-06-16T02:08:47.056Z,997.71
2016-06-16T02:09:47.090Z,997.7
2016-06-16T02:10:47.109Z,997.72
2016-06-16T02:11:47.128Z,997.71
2016-06-16T02:12:47.162Z,997.71
2016-06-16T02:13:47.180Z,997.74
2016-06-16T02:14:47.199Z,997.73
2016-06-16T02:15:47.233Z,997.77
2016-06-16T02:16:47.253Z,997.79
2016-06-16T02:17:47.271Z,997.78
2016-06-16T02:18:47.289Z,997.8
2016-06-16T02:19:47.324Z,997.77
2016-06-16T02:20:47.343Z,997.8
2016-06-16T02:21:47.361Z,997.75
2016-06-16T02:22:47.380Z,997.74
2016-06-16T02:23:47.415Z,997.75
2016-06-16T02:24:47.433Z,997.76
2016-06-16T02:25:48.217Z,997.8
2016-06-16T02:26:47.486Z,997.78
2016-06-16T02:27:47.505Z,997.78
2016-06-16T02:28:47.524Z,997.8
2016-06-16T02:29:47.558Z,997.79
2016-06-16T02:30:47.576Z,997.79
2016-06-16T02:31:47.595Z,997.82
2016-06-16T02:32:47.614Z,997.85
2016-06-16T02:33:47.632Z,997.87
2016-06-16T02:35:47.686Z,997.87
2016-06-16T02:36:47.705Z,997.88
2016-06-16T02:37:47.739Z,997.88
2016-06-16T02:38:47.757Z,997.86
2016-06-16T02:39:47.776Z,997.9
2016-06-16T02:40:48.013Z,997.89
2016-06-16T02:41:47.829Z,997.9
2016-06-16T02:42:47.848Z,997.9
2016-06-16T02:43:47.866Z,997.9
2016-06-16T02:44:47.886Z,997.89
2016-06-16T02:45:47.920Z,997.89
2016-06-16T02:46:47.938Z,997.84
2016-06-16T02:47:47.956Z,997.89
2016-06-16T02:48:47.992Z,997.89
2016-06-16T02:49:48.010Z,997.93
2016-06-16T02:51:48.063Z,997.92
2016-06-16T02:52:48.082Z,997.88
2016-06-16T02:53:48.100Z,997.93
2016-06-16T02:54:48.119Z,997.92
2016-06-16T02:55:48.154Z,997.97
2016-06-16T02:56:48.172Z,997.97
2016-06-16T02:57:48.190Z,997.96
2016-06-16T02:58:48.226Z,997.95
2016-06-16T02:59:48.244Z,997.94
2016-06-16T03:00:48.263Z,997.94
2016-06-16T03:01:48.282Z,997.97
2016-06-16T03:02:48.316Z,997.94
2016-06-16T03:03:48.334Z,997.97
2016-06-16T03:04:48.353Z,997.96
2016-06-16T03:05:48.372Z,997.99
2016-06-16T03:07:48.426Z,998.03
2016-06-16T03:08:48.443Z,998.02
2016-06-16T03:09:48.477Z,998.04
2016-06-16T03:10:48.496Z,998.02
2016-06-16T03:11:48.516Z,998.04
2016-06-16T03:12:48.534Z,998.09
2016-06-16T03:13:48.568Z,998.06
2016-06-16T03:14:48.586Z,998.05
2016-06-16T03:15:48.606Z,998.02
2016-06-16T03:16:48.624Z,998.01
2016-06-16T03:17:48.659Z,998
2016-06-16T03:18:48.677Z,998.07
2016-06-16T03:19:48.696Z,998.04
2016-06-16T03:20:48.730Z,998
2016-06-16T03:21:48.889Z,998.01
2016-06-16T03:23:48.786Z,998.01
2016-06-16T03:24:48.821Z,998.01
2016-06-16T03:25:48.839Z,998.03
2016-06-16T03:26:48.858Z,998.03
2016-06-16T03:27:48.877Z,998.01
2016-06-16T03:28:48.911Z,998.04
2016-06-16T03:29:48.945Z,998.05
2016-06-16T03:30:48.949Z,998.03
2016-06-16T03:31:48.983Z,998.05
2016-06-16T03:32:49.002Z,998.08
2016-06-16T03:33:49.020Z,998.09
2016-06-16T03:34:49.039Z,998.09
2016-06-16T03:35:49.073Z,998.12
2016-06-16T03:36:49.093Z,998.12
2016-06-16T03:38:49.129Z,998.1
2016-06-16T03:39:49.163Z,998.14
2016-06-16T03:40:49.182Z,998.15
2016-06-16T03:41:49.217Z,998.12
2016-06-16T03:42:49.235Z,998.1
2016-06-16T03:43:49.253Z,998.07
2016-06-16T03:44:49.273Z,998.1
2016-06-16T03:45:49.291Z,998.09
2016-06-16T03:46:49.326Z,998.09
2016-06-16T03:47:49.360Z,998.09
2016-06-16T03:48:49.363Z,998.11
2016-06-16T03:49:49.397Z,998.12
2016-06-16T03:50:49.433Z,998.16
2016-06-16T03:51:49.435Z,998.16
2016-06-16T03:52:49.453Z,998.18
2016-06-16T03:53:49.487Z,998.21
2016-06-16T03:54:49.507Z,998.21
2016-06-16T03:55:49.525Z,998.2
2016-06-16T03:56:49.857Z,998.2
2016-06-16T03:57:49.579Z,998.25
2016-06-16T03:58:49.597Z,998.28
2016-06-16T03:59:49.616Z,998.29
2016-06-16T04:00:49.650Z,998.26
2016-06-16T04:01:49.669Z,998.3
2016-06-16T04:02:49.687Z,998.27
2016-06-16T04:03:49.707Z,998.28
2016-06-16T04:04:49.740Z,998.26
2016-06-16T04:05:49.759Z,998.27
2016-06-16T04:06:49.777Z,998.25
2016-06-16T04:07:49.813Z,998.29
2016-06-16T04:08:49.830Z,998.31
2016-06-16T04:10:49.884Z,998.57
2016-06-16T04:11:49.903Z,998.82
2016-06-16T04:12:49.921Z,998.96
2016-06-16T04:13:49.939Z,998.97
2016-06-16T04:14:49.974Z,998.98
2016-06-16T04:15:49.993Z,999.04
2016-06-16T04:16:50.031Z,999.06
2016-06-16T04:17:50.105Z,999.06
2016-06-16T04:18:50.162Z,999.1
2016-06-16T04:19:50.221Z,999.08
2016-06-16T04:20:50.295Z,999.12
2016-06-16T04:21:50.343Z,999.17
2016-06-16T04:22:50.391Z,999.15
2016-06-16T04:23:50.424Z,999.17
2016-06-16T04:24:50.473Z,999.21
2016-06-16T04:26:50.550Z,999.2
2016-06-16T04:27:50.574Z,999.21
2016-06-16T04:28:50.613Z,999.18
2016-06-16T04:29:50.652Z,999.21
2016-06-16T04:30:50.676Z,999.28
2016-06-16T04:31:50.714Z,999.25
2016-06-16T04:32:50.735Z,999.3
2016-06-16T04:33:50.771Z,999.29
2016-06-16T04:34:50.807Z,999.29
2016-06-16T04:35:50.827Z,999.37
2016-06-16T04:36:50.863Z,999.31
2016-06-16T04:37:50.898Z,999.34
2016-06-16T04:38:50.933Z,999.36
2016-06-16T04:39:50.953Z,999.38
2016-06-16T04:40:50.988Z,999.39
2016-06-16T04:42:51.058Z,999.46
2016-06-16T04:43:51.076Z,999.44
2016-06-16T04:44:51.112Z,999.51
2016-06-16T04:45:51.146Z,999.49
2016-06-16T04:46:51.180Z,999.52
2016-06-16T04:47:51.199Z,999.53
2016-06-16T04:48:51.234Z,999.53
2016-06-16T04:49:51.267Z,999.55
2016-06-16T04:50:51.303Z,999.55
2016-06-16T04:51:51.337Z,999.59
2016-06-16T04:52:51.355Z,999.57
2016-06-16T04:53:51.405Z,999.58
2016-06-16T04:54:51.424Z,999.56
2016-06-16T04:55:51.458Z,999.54
2016-06-16T04:56:51.492Z,999.59
2016-06-16T04:58:51.545Z,999.64
2016-06-16T04:59:51.580Z,999.6
2016-06-16T05:00:51.614Z,999.62
2016-06-16T05:01:51.648Z,999.59
2016-06-16T05:02:51.682Z,999.61
2016-06-16T05:03:51.718Z,999.57
2016-06-16T05:04:51.752Z,999.58
2016-06-16T05:05:51.785Z,999.59
2016-06-16T05:06:51.820Z,999.57
2016-06-16T05:07:51.855Z,999.53
2016-06-16T05:08:51.873Z,999.58
2016-06-16T05:09:51.907Z,999.57
2016-06-16T05:10:51.942Z,999.58
2016-06-16T05:11:52.429Z,999.61
2016-06-16T05:13:52.045Z,999.67
2016-06-16T05:14:52.080Z,999.76
2016-06-16T05:15:52.114Z,999.77
2016-06-16T05:16:52.147Z,999.76
2016-06-16T05:17:52.182Z,999.77
2016-06-16T05:18:52.232Z,999.75
2016-06-16T05:19:52.251Z,999.74
2016-06-16T05:20:52.285Z,999.71
2016-06-16T05:21:52.319Z,999.7
2016-06-16T05:22:52.354Z,999.64
2016-06-16T05:23:52.388Z,999.65
2016-06-16T05:24:52.422Z,999.62
2016-06-16T05:25:52.456Z,999.56
2016-06-16T05:26:52.679Z,999.46
2016-06-16T05:27:52.526Z,999.43
2016-06-16T05:28:52.560Z,999.38
2016-06-16T05:29:52.593Z,999.41
2016-06-16T05:30:52.628Z,999.42
2016-06-16T05:31:52.663Z,999.48
2016-06-16T05:32:53.619Z,999.52
2016-06-16T05:33:52.747Z,999.51
2016-06-16T05:34:52.781Z,999.56
2016-06-16T05:35:52.816Z,999.58
2016-06-16T05:36:52.850Z,999.59
2016-06-16T05:37:52.884Z,999.55
2016-06-16T05:38:52.918Z,999.59
2016-06-16T05:39:52.953Z,999.61
2016-06-16T05:40:53.002Z,999.7
2016-06-16T05:41:53.021Z,999.69
2016-06-16T05:42:53.056Z,999.79
2016-06-16T05:43:53.091Z,999.8
2016-06-16T05:45:53.175Z,999.83
2016-06-16T05:46:53.209Z,999.8
2016-06-16T05:47:53.242Z,999.78
2016-06-16T05:48:53.277Z,999.83
2016-06-16T05:49:53.312Z,999.81
2016-06-16T05:50:53.346Z,999.86
2016-06-16T05:51:53.380Z,999.9
2016-06-16T05:52:53.430Z,999.98
2016-06-16T05:53:53.464Z,1000.05
2016-06-16T05:54:53.500Z,1000.08
2016-06-16T05:55:53.549Z,1000.13
2016-06-16T05:56:53.568Z,1000.13
2016-06-16T05:57:53.618Z,1000.16
2016-06-16T05:58:53.637Z,1000.21
2016-06-16T05:59:53.685Z,1000.19
2016-06-16T06:01:53.755Z,1000.15
2016-06-16T06:02:53.789Z,1000.1
2016-06-16T06:03:53.823Z,1000.09
2016-06-16T06:04:53.873Z,1000.11
2016-06-16T06:05:53.908Z,1000.1
2016-06-16T06:06:53.942Z,1000.09
2016-06-16T06:07:53.977Z,1000.12
2016-06-16T06:08:54.011Z,1000.14
2016-06-16T06:09:54.061Z,1000.1
2016-06-16T06:10:54.095Z,1000.09
2016-06-16T06:11:54.302Z,1000.13
2016-06-16T06:12:54.163Z,1000.08
2016-06-16T06:13:54.197Z,1000.12
2016-06-16T06:14:54.248Z,1000.13
2016-06-16T06:15:54.282Z,1000.09
2016-06-16T06:17:54.351Z,1000.05
2016-06-16T06:18:54.401Z,1000.02
2016-06-16T06:19:54.420Z,1000.02
2016-06-16T06:20:54.469Z,999.99
2016-06-16T06:21:54.504Z,999.95
2016-06-16T06:22:54.538Z,999.94
2016-06-16T06:23:54.573Z,999.95
2016-06-16T06:24:54.622Z,999.93
2016-06-16T06:25:54.657Z,999.97
2016-06-16T06:26:54.691Z,1000
2016-06-16T06:27:54.741Z,999.99
2016-06-16T06:28:54.775Z,999.98
2016-06-16T06:29:54.810Z,999.97
2016-06-16T06:30:54.844Z,999.98
2016-06-16T06:31:54.878Z,1000.01
2016-06-16T06:33:54.962Z,999.97
2016-06-16T06:34:54.998Z,999.94
2016-06-16T06:35:55.032Z,999.98
2016-06-16T06:36:55.066Z,1000.09
2016-06-16T06:37:55.115Z,1000.1
2016-06-16T06:38:55.149Z,1000.07
2016-06-16T06:39:55.184Z,1000.14
2016-06-16T06:40:55.219Z,1000.17
2016-06-16T06:41:55.269Z,1000.15
2016-06-16T06:42:55.303Z,1000.16
2016-06-16T06:43:55.337Z,1000.17
2016-06-16T06:44:55.371Z,1000.25
2016-06-16T06:45:55.421Z,1000.46
2016-06-16T06:46:55.455Z,1000.62
2016-06-16T06:48:55.525Z,1000.62
2016-06-16T06:49:55.575Z,1000.58
2016-06-16T06:50:55.609Z,1000.6
2016-06-16T06:51:55.642Z,1000.56
2016-06-16T06:52:55.693Z,1000.56
2016-06-16T06:53:55.726Z,1000.61
2016-06-16T06:54:55.762Z,1000.57
2016-06-16T06:55:55.796Z,1000.54
2016-06-16T06:56:55.940Z,1000.55
2016-06-16T06:57:55.880Z,1000.61
2016-06-16T06:58:55.914Z,1000.62
2016-06-16T06:59:55.949Z,1000.63
2016-06-16T07:00:55.983Z,1000.63
2016-06-16T07:01:56.033Z,1000.66
2016-06-16T07:02:56.068Z,1000.67
2016-06-16T07:03:56.118Z,1000.7
2016-06-16T07:04:56.135Z,1000.75
2016-06-16T07:05:56.185Z,1000.82
2016-06-16T07:06:56.221Z,1000.87
2016-06-16T07:07:56.255Z,1000.84
2016-06-16T07:08:56.289Z,1000.76
2016-06-16T07:09:56.339Z,1000.79
2016-06-16T07:10:56.373Z,1000.81
2016-06-16T07:11:56.595Z,1000.73
2016-06-16T07:12:56.442Z,1000.79
2016-06-16T07:13:56.492Z,1000.88
2016-06-16T07:14:56.526Z,1000.93
2016-06-16T07:15:56.561Z,1000.9
2016-06-16T07:16:56.611Z,1001.05
2016-06-16T07:17:56.661Z,1001.12
2016-06-16T07:18:56.678Z,1001.15
2016-06-16T07:20:56.764Z,1001.26
2016-06-16T07:21:56.798Z,1001.33
2016-06-16T07:22:56.832Z,1001.34
2016-06-16T07:23:56.866Z,1001.35
2016-06-16T07:24:56.917Z,1001.37
2016-06-16T07:25:56.950Z,1001.4
2016-06-16T07:26:56.985Z,1001.51
2016-06-16T07:27:57.019Z,1001.57
2016-06-16T07:28:57.069Z,1001.57
2016-06-16T07:29:57.104Z,1001.66
2016-06-16T07:30:57.137Z,1001.69
2016-06-16T07:31:57.187Z,1001.74
2016-06-16T07:32:57.222Z,1001.78
2016-06-16T07:33:57.257Z,1001.75
2016-06-16T07:48:37.505Z,1001.75
2016-06-16T07:48:37.615Z,1001.71
2016-06-16T07:48:44.958Z,1001.39
2016-06-16T07:49:44.993Z,1000.12
2016-06-16T07:50:45.027Z,1001.2
2016-06-16T07:51:45.077Z,1001.22
2016-06-16T07:52:45.111Z,1001.17
2016-06-16T07:53:45.145Z,1001.08
2016-06-16T07:54:45.180Z,1001.01
2016-06-16T07:55:45.215Z,1000.96
2016-06-16T07:56:45.249Z,999.83
2016-06-16T07:57:45.298Z,1000.78
2016-06-16T07:58:45.332Z,1000.57
2016-06-16T07:59:45.367Z,1000.33
2016-06-16T08:00:45.402Z,1000.3
2016-06-16T08:01:45.451Z,1000.27
2016-06-16T08:02:45.486Z,1000.27
2016-06-16T08:04:45.554Z,1000.26
2016-06-16T08:05:45.588Z,1000.25
2016-06-16T08:06:45.624Z,1000.29
2016-06-16T08:07:45.674Z,1000.29
2016-06-16T08:08:45.708Z,1000.26
2016-06-16T08:09:45.742Z,1000.23
2016-06-16T08:10:45.776Z,1000.21
2016-06-16T08:11:45.810Z,1000.24
2016-06-16T08:12:45.860Z,1000.18
2016-06-16T08:13:45.895Z,1000.14
2016-06-16T08:14:45.928Z,1000.1
2016-06-16T08:15:45.963Z,1000.03
2016-06-16T08:16:45.997Z,1000.05
2016-06-16T08:17:46.047Z,1000.03
2016-06-16T08:18:46.083Z,1000.08
2016-06-16T08:19:46.116Z,1000.06
2016-06-16T08:20:46.150Z,1000.02
2016-06-16T08:21:46.201Z,1000.04
2016-06-16T08:22:46.219Z,1000.13
2016-06-16T08:23:46.285Z,1000.21
2016-06-16T08:24:46.303Z,1000.22
2016-06-16T08:25:46.337Z,1000.14
2016-06-16T08:26:46.387Z,1000.17
2016-06-16T08:27:46.406Z,1000.08
2016-06-16T08:28:46.441Z,1000.14
2016-06-16T08:29:46.491Z,1000.12
2016-06-16T08:30:46.525Z,1000.09
2016-06-16T08:31:46.559Z,1000.09
2016-06-16T08:32:46.593Z,1000.06
2016-06-16T08:33:46.628Z,1000.07
2016-06-16T08:34:46.678Z,1000.09
2016-06-16T08:36:46.747Z,1000.34
2016-06-16T08:37:46.780Z,1000.43
2016-06-16T08:38:46.815Z,1000.39
2016-06-16T08:39:46.865Z,1000.51
2016-06-16T08:40:46.884Z,1000.49
2016-06-16T08:41:46.934Z,1000.35
2016-06-16T08:42:46.969Z,1000.34
2016-06-16T08:43:47.003Z,1000.19
2016-06-16T08:44:47.038Z,1000.15
2016-06-16T08:45:47.072Z,1000.08
2016-06-16T08:46:47.106Z,1000.17
2016-06-16T08:47:47.139Z,1000.16
2016-06-16T08:48:37.440Z,1000.19
2016-06-16T08:49:37.459Z,1000.1
2016-06-16T08:50:37.494Z,999.77
2016-06-16T08:51:37.527Z,999.63
2016-06-16T08:52:37.593Z,999.62
2016-06-16T08:53:37.612Z,999.72
2016-06-16T08:54:37.647Z,999.72
2016-06-16T08:55:37.681Z,999.76
2016-06-16T08:56:37.730Z,999.82
2016-06-16T08:58:37.783Z,999.73
2016-06-16T08:59:37.818Z,999.79
2016-06-16T09:00:37.852Z,999.82
2016-06-16T09:01:37.886Z,999.79
2016-06-16T09:02:37.921Z,999.8
2016-06-16T09:03:37.955Z,999.8
2016-06-16T09:04:37.989Z,999.78
2016-06-16T09:05:38.024Z,999.76
2016-06-16T09:06:38.058Z,999.62
2016-06-16T09:07:38.092Z,999.67
2016-06-16T09:08:38.126Z,999.73
2016-06-16T09:09:38.161Z,999.68
2016-06-16T09:10:38.196Z,999.73
2016-06-16T09:11:38.230Z,999.72
2016-06-16T09:12:38.263Z,999.67
2016-06-16T09:14:38.333Z,999.72
2016-06-16T09:15:38.367Z,999.67
2016-06-16T09:16:38.417Z,999.68
2016-06-16T09:17:38.451Z,999.73
2016-06-16T09:18:38.485Z,999.74
2016-06-16T09:19:38.521Z,999.67
2016-06-16T09:20:38.554Z,999.74
2016-06-16T09:21:38.589Z,999.75
2016-06-16T09:22:38.716Z,999.69
2016-06-16T09:23:38.657Z,999.7
2016-06-16T09:24:38.692Z,999.72
2016-06-16T09:25:38.726Z,999.71
2016-06-16T09:26:38.760Z,999.71
2016-06-16T09:27:38.795Z,999.69
2016-06-16T09:28:38.829Z,999.69
2016-06-16T09:30:38.897Z,999.71
2016-06-16T09:31:38.932Z,999.69
2016-06-16T09:32:38.966Z,999.72
2016-06-16T09:33:39.001Z,999.73
2016-06-16T09:34:39.034Z,999.7
2016-06-16T09:35:39.070Z,999.69
2016-06-16T09:36:39.104Z,999.63
2016-06-16T09:37:39.138Z,999.66
2016-06-16T09:38:39.171Z,999.67
2016-06-16T09:39:39.207Z,999.74
2016-06-16T09:40:39.241Z,999.75
2016-06-16T09:41:39.291Z,999.69
2016-06-16T09:42:39.325Z,999.69
2016-06-16T09:43:39.390Z,999.69
2016-06-16T09:45:39.490Z,999.61
2016-06-16T09:46:39.447Z,999.6
2016-06-16T09:47:39.481Z,999.59
2016-06-16T09:48:39.515Z,999.64
2016-06-16T09:49:39.566Z,999.64
2016-06-16T09:50:39.583Z,999.64
2016-06-16T09:51:39.619Z,999.71
2016-06-16T09:52:39.653Z,999.73
2016-06-16T09:53:39.687Z,999.72
2016-06-16T09:54:39.720Z,999.7
2016-06-16T09:55:39.756Z,999.71
2016-06-16T09:56:39.790Z,999.72
2016-06-16T09:57:39.824Z,999.69
2016-06-16T09:58:39.858Z,999.68
2016-06-16T09:59:39.893Z,999.7
2016-06-16T10:00:39.927Z,999.63
2016-06-16T10:01:39.961Z,999.66
2016-06-16T10:02:39.996Z,999.65
2016-06-16T10:03:40.031Z,999.63
2016-06-16T10:04:40.065Z,999.64
2016-06-16T10:05:40.099Z,999.62
2016-06-16T10:06:40.133Z,999.56
2016-06-16T10:07:40.729Z,999.6
2016-06-16T10:08:40.202Z,999.6
2016-06-16T10:09:40.236Z,999.62
2016-06-16T10:10:40.286Z,999.6
2016-06-16T10:11:40.305Z,999.67
2016-06-16T10:12:40.339Z,999.7
2016-06-16T10:13:40.373Z,999.71
2016-06-16T10:14:40.393Z,999.68
2016-06-16T10:15:40.427Z,999.7
2016-06-16T10:17:40.495Z,999.66
2016-06-16T10:18:40.529Z,999.57
2016-06-16T10:19:40.564Z,999.62
2016-06-16T10:20:40.598Z,999.62
2016-06-16T10:21:40.632Z,999.68
2016-06-16T10:22:40.667Z,999.68
2016-06-16T10:23:40.701Z,999.66
2016-06-16T10:24:40.735Z,999.72
2016-06-16T10:25:40.769Z,999.73
2016-06-16T10:26:40.804Z,999.73
2016-06-16T10:27:40.823Z,999.68
2016-06-16T10:28:40.857Z,999.67
2016-06-16T10:29:40.892Z,999.69
2016-06-16T10:30:40.926Z,999.61
2016-06-16T10:31:40.960Z,999.63
2016-06-16T10:33:41.029Z,999.57
2016-06-16T10:34:41.062Z,999.61
2016-06-16T10:35:41.097Z,999.6
2016-06-16T10:36:41.132Z,999.62
2016-06-16T10:37:41.150Z,999.6
2016-06-16T10:38:41.184Z,999.58
2016-06-16T10:39:41.219Z,999.61
2016-06-16T10:40:41.254Z,999.5
2016-06-16T10:41:41.287Z,999.53
2016-06-16T10:42:41.321Z,999.54
2016-06-16T10:43:41.356Z,999.57
2016-06-16T10:44:41.391Z,999.53
2016-06-16T10:45:41.410Z,999.56
2016-06-16T10:46:41.444Z,999.58
2016-06-16T10:47:41.478Z,999.59
2016-06-16T10:49:41.547Z,999.64
2016-06-16T10:50:41.581Z,999.61
2016-06-16T10:51:41.599Z,999.59
2016-06-16T10:52:41.634Z,999.68
2016-06-16T10:53:41.668Z,999.66
2016-06-16T10:54:41.703Z,999.7
2016-06-16T10:55:41.736Z,999.61
2016-06-16T10:56:41.772Z,999.63
2016-06-16T10:57:41.806Z,999.62
2016-06-16T10:58:41.825Z,999.57
2016-06-16T10:59:41.858Z,999.55
2016-06-16T11:00:41.893Z,999.52
2016-06-16T11:01:41.927Z,999.5
2016-06-16T11:02:41.962Z,999.53
2016-06-16T11:03:41.997Z,999.53
2016-06-16T11:07:44.680Z,999.57
2016-06-16T11:09:44.749Z,999.6
2016-06-16T11:10:44.783Z,999.61
2016-06-16T11:11:44.817Z,999.66
2016-06-16T11:13:44.871Z,999.7
2016-06-16T11:14:44.905Z,999.69
2016-06-16T11:16:44.989Z,999.71
2016-06-16T11:17:45.008Z,999.72
2016-06-16T11:18:45.042Z,999.7
2016-06-16T11:19:45.061Z,999.67
2016-06-16T11:20:45.096Z,999.71
2016-06-16T11:21:45.130Z,999.61
2016-06-16T11:22:45.164Z,999.65
2016-06-16T11:23:45.199Z,999.7
2016-06-16T11:24:45.233Z,999.71
2016-06-16T11:25:45.252Z,999.69
2016-06-16T11:26:45.285Z,999.68
2016-06-16T11:27:45.320Z,999.71
2016-06-16T11:28:45.354Z,999.63
2016-06-16T11:29:45.389Z,999.59
2016-06-16T11:30:45.407Z,999.65
2016-06-16T11:31:45.441Z,999.67
2016-06-16T11:32:45.476Z,999.71
2016-06-16T11:33:45.511Z,999.71
2016-06-16T11:34:45.529Z,999.71
2016-06-16T11:35:45.564Z,999.71
2016-06-16T11:36:45.598Z,999.74
2016-06-16T11:37:45.631Z,999.67
2016-06-16T11:38:45.666Z,999.67
2016-06-16T11:39:45.701Z,999.68
2016-06-16T11:40:45.719Z,999.68
2016-06-16T11:41:45.754Z,999.69
2016-06-16T11:42:45.803Z,999.68
2016-06-16T11:43:45.838Z,999.66
2016-06-16T11:44:45.856Z,999.69
2016-06-16T11:45:45.891Z,999.74
2016-06-16T11:46:45.926Z,999.71
2016-06-16T11:48:45.978Z,999.71
2016-06-16T11:49:46.012Z,999.68
2016-06-16T11:50:46.046Z,999.72
2016-06-16T11:51:46.066Z,999.7
2016-06-16T11:52:46.100Z,999.68
2016-06-16T11:53:46.134Z,999.67
2016-06-16T11:54:46.169Z,999.69
2016-06-16T11:55:46.203Z,999.64
2016-06-16T11:56:46.237Z,999.69
2016-06-16T11:57:46.256Z,999.65
2016-06-16T11:58:46.291Z,999.68
2016-06-16T11:59:46.325Z,999.7
2016-06-16T12:00:46.358Z,999.72
2016-06-16T12:01:46.394Z,999.72
2016-06-16T12:02:46.428Z,999.7
2016-06-16T12:04:46.481Z,999.68
2016-06-16T12:05:46.515Z,999.65
2016-06-16T12:06:46.534Z,999.67
2016-06-16T12:07:46.584Z,999.66
2016-06-16T12:08:46.602Z,999.67
2016-06-16T12:09:46.636Z,999.63
2016-06-16T12:10:46.671Z,999.64
2016-06-16T12:11:46.705Z,999.68
2016-06-16T12:12:46.724Z,999.7
2016-06-16T12:13:46.758Z,999.64
2016-06-16T12:14:46.793Z,999.66
2016-06-16T12:15:46.827Z,999.73
2016-06-16T12:16:46.861Z,999.71
2016-06-16T12:17:46.880Z,999.76
2016-06-16T12:18:46.914Z,999.74
2016-06-16T12:20:46.983Z,999.71
2016-06-16T12:21:47.017Z,999.71
2016-06-16T12:22:47.051Z,999.74
2016-06-16T12:23:47.070Z,999.73
2016-06-16T12:24:47.121Z,999.72
2016-06-16T12:25:47.139Z,999.71
2016-06-16T12:26:47.173Z,999.68
2016-06-16T12:27:47.191Z,999.67
2016-06-16T12:28:47.227Z,999.69
2016-06-16T12:29:47.277Z,999.73
2016-06-16T12:30:47.295Z,999.68
2016-06-16T12:31:47.329Z,999.76
2016-06-16T12:32:47.348Z,999.71
2016-06-16T12:33:47.382Z,999.74
2016-06-16T12:34:47.417Z,999.74
2016-06-16T12:36:47.485Z,999.66
2016-06-16T12:37:47.505Z,999.71
2016-06-16T12:38:47.539Z,999.67
2016-06-16T12:39:47.572Z,999.69
2016-06-16T12:40:47.607Z,999.65
2016-06-16T12:41:47.625Z,999.68
2016-06-16T12:42:47.659Z,999.66
2016-06-16T12:43:47.695Z,999.63
2016-06-16T12:44:47.728Z,999.62
2016-06-16T12:45:47.763Z,999.59
2016-06-16T12:46:47.782Z,999.59
2016-06-16T12:47:47.816Z,999.59
2016-06-16T12:48:47.850Z,999.62
2016-06-16T12:49:47.884Z,999.62
2016-06-16T12:51:47.954Z,999.54
2016-06-16T12:52:47.973Z,999.54
2016-06-16T12:59:49.212Z,999.58
2016-06-16T13:00:49.246Z,999.59
2016-06-16T13:01:49.282Z,999.61
2016-06-16T13:02:49.316Z,999.59
2016-06-16T13:03:49.335Z,999.56
2016-06-16T13:04:49.369Z,999.58
2016-06-16T13:05:49.402Z,999.57
2016-06-16T13:06:49.437Z,999.5
2016-06-16T13:07:49.456Z,999.52
2016-06-16T13:09:49.524Z,999.55
2016-06-16T13:10:49.560Z,999.51
2016-06-16T13:11:49.594Z,999.53
2016-06-16T13:12:49.613Z,999.51
2016-06-16T13:13:49.647Z,999.46
2016-06-16T13:14:49.681Z,999.46
2016-06-16T13:15:49.715Z,999.49
2016-06-16T13:16:49.734Z,999.45
2016-06-16T13:17:49.768Z,999.48
2016-06-16T13:18:49.802Z,999.51
2016-06-16T13:19:49.852Z,999.51
2016-06-16T13:20:49.871Z,999.5
2016-06-16T13:21:49.890Z,999.47
2016-06-16T13:22:49.924Z,999.49
2016-06-16T13:24:49.992Z,999.43
2016-06-16T13:25:50.028Z,999.43
2016-06-16T13:26:50.045Z,999.44
2016-06-16T13:27:50.096Z,999.43
2016-06-16T13:28:50.115Z,999.44
2016-06-16T13:29:50.149Z,999.41